Frazer, Kentucky
Current Conditions -  °F | °C
As of 5:56 AM on Saturday 01 Nov 2014 (Local Time) from KEKQ Reporting Station
Overcast Overcast  
Wind Chill: 25°   Ceiling: 1500
Heat Index: 35°   Visibility: 10mi
Dew Point: 32°   Wind: 16mph
Humidity: 89%   Direction: 340°NNW
Pressure: 30.09"   Gusts: 24mph
Location:  36.8129°N, 84.8215°W
Report Text: KEKQ 010956Z AUTO 34014G21KT 10SM OVC015 02/00 A3009 RMK AO2 T00160000 SNE56 P0000 SLP200
Loading
Personal Weather Stations






























Interactive Weather Map
Tropical Storm Tracking
New forecast layout! Learn more

10-Day Weather Forecast

Advertisements
Track Severe Weather on mobile